createdAt,value
2017-05-02T00:00:15.610Z,931.82
2017-05-02T00:00:35.590Z,931.9
2017-05-02T00:00:55.562Z,931.93
2017-05-02T00:01:15.560Z,931.9
2017-05-02T00:01:34.972Z,931.88
2017-05-02T00:01:56.440Z,931.91
2017-05-02T00:02:17.937Z,931.89
2017-05-02T00:02:38.236Z,931.92
2017-05-02T00:02:58.389Z,931.86
2017-05-02T00:03:18.388Z,931.87
2017-05-02T00:03:38.395Z,931.81
2017-05-02T00:03:57.797Z,931.84
2017-05-02T00:04:17.803Z,931.81
2017-05-02T00:04:37.764Z,931.81
2017-05-02T00:04:57.754Z,931.81
2017-05-02T00:05:17.735Z,931.82
2017-05-02T00:05:37.143Z,931.8
2017-05-02T00:05:57.132Z,931.83
2017-05-02T00:06:17.193Z,931.75
2017-05-02T00:06:37.212Z,931.79
2017-05-02T00:06:57.233Z,931.77
2017-05-02T00:07:17.221Z,931.75
2017-05-02T00:07:37.240Z,931.73
2017-05-02T00:07:56.130Z,931.75
2017-05-02T00:08:16.140Z,931.71
2017-05-02T00:08:36.108Z,931.72
2017-05-02T00:08:55.517Z,931.7
2017-05-02T00:09:15.509Z,931.71
2017-05-02T00:09:35.487Z,931.68
2017-05-02T00:09:54.902Z,931.7
2017-05-02T00:10:14.334Z,931.67
2017-05-02T00:10:34.328Z,931.65
2017-05-02T00:10:53.781Z,931.66
2017-05-02T00:11:13.208Z,931.64
2017-05-02T00:11:33.191Z,931.65
2017-05-02T00:11:53.183Z,931.63
2017-05-02T00:12:13.492Z,931.64
2017-05-02T00:12:33.473Z,931.64
2017-05-02T00:12:53.466Z,931.64
2017-05-02T00:13:13.481Z,931.57
2017-05-02T00:13:33.469Z,931.58
2017-05-02T00:13:52.306Z,931.58
2017-05-02T00:14:12.264Z,931.54
2017-05-02T00:14:31.663Z,931.51
2017-05-02T00:14:51.095Z,931.53
2017-05-02T00:15:10.506Z,931.55
2017-05-02T00:15:30.457Z,931.53
2017-05-02T00:15:50.450Z,931.56
2017-05-02T00:16:10.372Z,931.57
2017-05-02T00:16:29.796Z,931.54
2017-05-02T00:16:49.218Z,931.56
2017-05-02T00:17:09.160Z,931.56
2017-05-02T00:17:29.110Z,931.56
2017-05-02T00:17:49.109Z,931.59
2017-05-02T00:18:08.538Z,931.55
2017-05-02T00:18:27.976Z,931.58
2017-05-02T00:18:47.938Z,931.58
2017-05-02T00:19:07.367Z,931.58
2017-05-02T00:19:27.368Z,931.59
2017-05-02T00:19:47.305Z,931.57
2017-05-02T00:20:07.271Z,931.6
2017-05-02T00:20:27.233Z,931.6
2017-05-02T00:20:46.644Z,931.61
2017-05-02T00:21:06.597Z,931.61
2017-05-02T00:21:26.001Z,931.6
2017-05-02T00:21:45.963Z,931.61
2017-05-02T00:22:06.316Z,931.62
2017-05-02T00:22:26.305Z,931.63
2017-05-02T00:22:45.697Z,931.62
2017-05-02T00:23:05.642Z,931.62
2017-05-02T00:23:25.078Z,931.6
2017-05-02T00:23:44.497Z,931.62
2017-05-02T00:24:04.512Z,931.64
2017-05-02T00:24:24.485Z,931.61
2017-05-02T00:24:44.444Z,931.66
2017-05-02T00:25:04.384Z,931.64
2017-05-02T00:25:24.345Z,931.67
2017-05-02T00:25:43.762Z,931.64
2017-05-02T00:26:03.734Z,931.67
2017-05-02T00:26:23.130Z,931.64
2017-05-02T00:26:43.102Z,931.66
2017-05-02T00:27:03.190Z,931.66
2017-05-02T00:27:23.163Z,931.68
2017-05-02T00:27:42.609Z,931.67
2017-05-02T00:28:02.017Z,931.63
2017-05-02T00:28:20.893Z,931.65
2017-05-02T00:28:40.863Z,931.68
2017-05-02T00:29:00.835Z,931.64
2017-05-02T00:29:20.850Z,931.6
2017-05-02T00:29:40.814Z,931.63
2017-05-02T00:30:00.257Z,931.69
2017-05-02T00:30:20.188Z,931.65
2017-05-02T00:30:40.175Z,931.65
2017-05-02T00:31:00.109Z,931.66
2017-05-02T00:31:20.109Z,931.63
2017-05-02T00:31:40.107Z,931.62
2017-05-02T00:32:00.108Z,931.67
2017-05-02T00:32:19.532Z,931.66
2017-05-02T00:32:38.962Z,931.66
2017-05-02T00:32:58.964Z,931.66
2017-05-02T00:33:18.958Z,931.62
2017-05-02T00:33:52.804Z,931.64
2017-05-02T00:34:12.236Z,931.67
2017-05-02T00:34:32.224Z,931.64
2017-05-02T00:34:52.199Z,931.64
2017-05-02T00:35:12.186Z,931.61
2017-05-02T00:35:31.583Z,931.62
2017-05-02T00:35:51.566Z,931.64
2017-05-02T00:36:11.514Z,931.62
2017-05-02T00:36:30.895Z,931.59
2017-05-02T00:36:50.311Z,931.61
2017-05-02T00:37:10.330Z,931.61
2017-05-02T00:37:30.292Z,931.59
2017-05-02T00:37:50.230Z,931.64
2017-05-02T00:38:10.194Z,931.63
2017-05-02T00:38:30.217Z,931.61
2017-05-02T00:38:50.199Z,931.65
2017-05-02T00:39:10.165Z,931.64
2017-05-02T00:39:30.146Z,931.63
2017-05-02T00:39:50.097Z,931.67
2017-05-02T00:40:10.085Z,931.63
2017-05-02T00:40:30.056Z,931.68
2017-05-02T00:40:50.025Z,931.65
2017-05-02T00:41:09.443Z,931.66
2017-05-02T00:41:29.453Z,931.68
2017-05-02T00:41:48.861Z,931.65
2017-05-02T00:42:08.863Z,931.64
2017-05-02T00:42:28.837Z,931.63
2017-05-02T00:42:48.848Z,931.63
2017-05-02T00:43:08.280Z,931.66
2017-05-02T00:43:27.696Z,931.64
2017-05-02T00:43:47.675Z,931.63
2017-05-02T00:44:07.662Z,931.65
2017-05-02T00:44:27.075Z,931.64
2017-05-02T00:44:47.082Z,931.62
2017-05-02T00:45:07.052Z,931.62
2017-05-02T00:45:27.051Z,931.63
2017-05-02T00:45:47.039Z,931.59
2017-05-02T00:46:06.515Z,931.63
2017-05-02T00:46:25.923Z,931.61
2017-05-02T00:46:45.938Z,931.67
2017-05-02T00:47:05.478Z,931.67
2017-05-02T00:47:25.450Z,931.64
2017-05-02T00:47:45.457Z,931.63
2017-05-02T00:48:05.475Z,931.66
2017-05-02T00:48:25.479Z,931.65
2017-05-02T00:48:45.476Z,931.65
2017-05-02T00:49:04.904Z,931.69
2017-05-02T00:49:24.356Z,931.7
2017-05-02T00:49:44.335Z,931.67
2017-05-02T00:50:04.320Z,931.66
2017-05-02T00:50:24.300Z,931.68
2017-05-02T00:50:43.748Z,931.68
2017-05-02T00:51:03.739Z,931.65
2017-05-02T00:51:23.728Z,931.64
2017-05-02T00:51:43.152Z,931.62
2017-05-02T00:52:03.532Z,931.62
2017-05-02T00:52:22.400Z,931.57
2017-05-02T00:52:42.396Z,931.57
2017-05-02T00:53:02.388Z,931.59
2017-05-02T00:53:21.842Z,931.59
2017-05-02T00:53:41.823Z,931.59
2017-05-02T00:54:01.788Z,931.59
2017-05-02T00:54:21.195Z,931.54
2017-05-02T00:54:41.165Z,931.6
2017-05-02T00:55:01.169Z,931.52
2017-05-02T00:55:20.575Z,931.56
2017-05-02T00:55:39.953Z,931.56
2017-05-02T00:55:58.839Z,931.56
2017-05-02T00:56:18.220Z,931.57
2017-05-02T00:56:38.162Z,931.62
2017-05-02T00:56:57.635Z,931.62
2017-05-02T00:57:17.594Z,931.6
2017-05-02T00:57:37.616Z,931.6
2017-05-02T00:57:57.004Z,931.62
2017-05-02T00:58:16.985Z,931.59
2017-05-02T00:58:36.388Z,931.64
2017-05-02T00:58:56.374Z,931.64
2017-05-02T00:59:16.365Z,931.64
2017-05-02T00:59:36.346Z,931.65
2017-05-02T00:59:56.339Z,931.66
2017-05-02T01:00:16.318Z,931.66
2017-05-02T01:00:36.325Z,931.61
2017-05-02T01:00:56.298Z,931.66
2017-05-02T01:01:16.300Z,931.63
2017-05-02T01:01:36.292Z,931.68
2017-05-02T01:01:56.274Z,931.66
2017-05-02T01:02:16.239Z,931.66
2017-05-02T01:02:36.235Z,931.68
2017-05-02T01:02:56.237Z,931.68
2017-05-02T01:03:16.243Z,931.64
2017-05-02T01:03:36.196Z,931.63
2017-05-02T01:03:55.620Z,931.69
2017-05-02T01:04:15.567Z,931.67
2017-05-02T01:04:34.996Z,931.63
2017-05-02T01:04:54.981Z,931.65
2017-05-02T01:05:14.999Z,931.68
2017-05-02T01:05:34.474Z,931.67
2017-05-02T01:05:54.409Z,931.66
2017-05-02T01:06:13.840Z,931.65
2017-05-02T01:06:33.814Z,931.62
2017-05-02T01:06:53.806Z,931.61
2017-05-02T01:07:14.310Z,931.62
2017-05-02T01:07:33.759Z,931.66
2017-05-02T01:07:53.739Z,931.66
2017-05-02T01:08:13.718Z,931.64
2017-05-02T01:08:33.725Z,931.66
2017-05-02T01:08:53.716Z,931.65
2017-05-02T01:09:13.717Z,931.66
2017-05-02T01:09:33.670Z,931.64
2017-05-02T01:09:53.644Z,931.65
2017-05-02T01:10:13.089Z,931.7
2017-05-02T01:10:33.053Z,931.68
2017-05-02T01:10:53.003Z,931.69
2017-05-02T01:11:12.980Z,931.68
2017-05-02T01:11:32.959Z,931.68
2017-05-02T01:11:52.937Z,931.68
2017-05-02T01:12:12.381Z,931.7
2017-05-02T01:12:32.362Z,931.72
2017-05-02T01:12:52.348Z,931.69
2017-05-02T01:13:12.341Z,931.7
2017-05-02T01:13:32.337Z,931.72
2017-05-02T01:13:52.336Z,931.75
2017-05-02T01:14:12.324Z,931.73
2017-05-02T01:14:31.754Z,931.72
2017-05-02T01:14:51.757Z,931.71
2017-05-02T01:15:11.735Z,931.74
2017-05-02T01:15:31.763Z,931.76
2017-05-02T01:15:51.729Z,931.8
2017-05-02T01:16:11.721Z,931.79
2017-05-02T01:16:31.669Z,931.8
2017-05-02T01:16:51.389Z,931.78
2017-05-02T01:17:15.332Z,931.78
2017-05-02T01:17:35.317Z,931.78
2017-05-02T01:17:55.327Z,931.78
2017-05-02T01:18:15.302Z,931.79
2017-05-02T01:18:35.232Z,931.79
2017-05-02T01:18:55.212Z,931.77
2017-05-02T01:19:15.191Z,931.76
2017-05-02T01:19:34.653Z,931.75
2017-05-02T01:19:54.648Z,931.76
2017-05-02T01:20:14.611Z,931.73
2017-05-02T01:20:34.623Z,931.75
2017-05-02T01:20:54.016Z,931.75
2017-05-02T01:21:13.996Z,931.77
2017-05-02T01:21:33.410Z,931.71
2017-05-02T01:21:53.369Z,931.79
2017-05-02T01:22:13.325Z,931.7
2017-05-02T01:22:32.747Z,931.76
2017-05-02T01:22:52.735Z,931.72
2017-05-02T01:23:12.715Z,931.74
2017-05-02T01:23:46.017Z,931.74
2017-05-02T01:24:05.997Z,931.73
2017-05-02T01:24:26.000Z,931.83
2017-05-02T01:24:45.996Z,931.78
2017-05-02T01:25:05.973Z,931.78
2017-05-02T01:25:25.387Z,931.76
2017-05-02T01:25:44.810Z,931.78
2017-05-02T01:26:04.907Z,931.79
2017-05-02T01:26:38.816Z,931.76
2017-05-02T01:26:58.766Z,931.76
2017-05-02T01:27:18.705Z,931.79
2017-05-02T01:27:38.689Z,931.77
2017-05-02T01:27:58.097Z,931.79
2017-05-02T01:28:18.082Z,931.75
2017-05-02T01:28:38.062Z,931.7
2017-05-02T01:28:56.911Z,931.75
2017-05-02T01:29:16.897Z,931.76
2017-05-02T01:29:36.877Z,931.73
2017-05-02T01:29:56.838Z,931.76
2017-05-02T01:30:15.721Z,931.72
2017-05-02T01:30:35.652Z,931.78
2017-05-02T01:30:55.662Z,931.76
2017-05-02T01:31:15.612Z,931.75
2017-05-02T01:31:35.593Z,931.77
2017-05-02T01:31:55.557Z,931.75
2017-05-02T01:32:15.524Z,931.78
2017-05-02T01:32:35.532Z,931.74
2017-05-02T01:32:55.486Z,931.78
2017-05-02T01:33:14.904Z,931.75
2017-05-02T01:33:34.861Z,931.76
2017-05-02T01:33:54.839Z,931.79
2017-05-02T01:34:14.815Z,931.8
2017-05-02T01:34:34.787Z,931.8
2017-05-02T01:34:53.637Z,931.77
2017-05-02T01:35:13.620Z,931.78
2017-05-02T01:35:33.029Z,931.78
2017-05-02T01:35:52.452Z,931.77
2017-05-02T01:36:12.425Z,931.74
2017-05-02T01:36:31.818Z,931.74
2017-05-02T01:36:51.267Z,931.75
2017-05-02T01:37:10.678Z,931.72
2017-05-02T01:37:30.660Z,931.76
2017-05-02T01:37:50.648Z,931.76
2017-05-02T01:38:10.670Z,931.72
2017-05-02T01:38:30.624Z,931.72
2017-05-02T01:38:50.617Z,931.75
2017-05-02T01:39:09.455Z,931.73
2017-05-02T01:39:28.898Z,931.73
2017-05-02T01:39:48.283Z,931.69
2017-05-02T01:40:07.728Z,931.7
2017-05-02T01:40:27.167Z,931.69
2017-05-02T01:40:47.155Z,931.69
2017-05-02T01:41:06.565Z,931.72
2017-05-02T01:41:25.987Z,931.69
2017-05-02T01:41:45.414Z,931.73
2017-05-02T01:42:04.564Z,931.69
2017-05-02T01:42:24.564Z,931.71
2017-05-02T01:42:44.594Z,931.7
2017-05-02T01:43:04.669Z,931.69
2017-05-02T01:43:24.097Z,931.67
2017-05-02T01:43:44.108Z,931.66
2017-05-02T01:44:04.112Z,931.69
2017-05-02T01:44:23.530Z,931.67
2017-05-02T01:44:42.930Z,931.67
2017-05-02T01:45:02.904Z,931.66
2017-05-02T01:45:22.297Z,931.63
2017-05-02T01:45:41.743Z,931.65
2017-05-02T01:46:01.715Z,931.65
2017-05-02T01:46:21.961Z,931.67
2017-05-02T01:46:42.096Z,931.64
2017-05-02T01:47:01.508Z,931.66
2017-05-02T01:47:20.902Z,931.67
2017-05-02T01:47:39.751Z,931.65
2017-05-02T01:47:59.730Z,931.62
2017-05-02T01:48:19.695Z,931.61
2017-05-02T01:48:39.685Z,931.65
2017-05-02T01:48:59.667Z,931.65
2017-05-02T01:49:19.649Z,931.68
2017-05-02T01:49:39.641Z,931.66
2017-05-02T01:49:59.616Z,931.68
2017-05-02T01:50:19.035Z,931.68
2017-05-02T01:50:39.041Z,931.68
2017-05-02T01:50:59.028Z,931.67
2017-05-02T01:51:18.446Z,931.68
2017-05-02T01:51:38.421Z,931.65
2017-05-02T01:51:58.406Z,931.72
2017-05-02T01:52:17.879Z,931.7
2017-05-02T01:52:37.816Z,931.71
2017-05-02T01:52:57.800Z,931.72
2017-05-02T01:53:17.221Z,931.71
2017-05-02T01:53:36.634Z,931.72
2017-05-02T01:53:56.630Z,931.73
2017-05-02T01:54:16.634Z,931.69
2017-05-02T01:54:36.588Z,931.68
2017-05-02T01:54:56.620Z,931.68
2017-05-02T01:55:15.490Z,931.7
2017-05-02T01:55:35.457Z,931.7
2017-05-02T01:55:54.301Z,931.7
2017-05-02T01:56:14.274Z,931.66
2017-05-02T01:56:33.678Z,931.69
2017-05-02T01:56:53.099Z,931.73
2017-05-02T01:57:13.048Z,931.68
2017-05-02T01:57:33.031Z,931.69
2017-05-02T01:57:53.019Z,931.67
2017-05-02T01:58:12.964Z,931.7
2017-05-02T01:58:32.388Z,931.69
2017-05-02T01:58:52.356Z,931.69
2017-05-02T01:59:12.369Z,931.7
2017-05-02T01:59:32.341Z,931.7
2017-05-02T01:59:52.305Z,931.72
2017-05-02T02:00:12.320Z,931.73
2017-05-02T02:00:32.281Z,931.74
2017-05-02T02:00:52.242Z,931.74
2017-05-02T02:01:12.184Z,931.75
2017-05-02T02:01:31.579Z,931.76
2017-05-02T02:02:05.769Z,931.76
2017-05-02T02:02:25.212Z,931.74
2017-05-02T02:02:48.334Z,931.73
2017-05-02T02:03:08.288Z,931.74
2017-05-02T02:03:28.301Z,931.76
2017-05-02T02:04:02.120Z,931.78
2017-05-02T02:04:21.529Z,931.78
2017-05-02T02:04:41.487Z,931.81
2017-05-02T02:05:01.461Z,931.79
2017-05-02T02:05:21.409Z,931.76
2017-05-02T02:05:41.382Z,931.73
2017-05-02T02:06:01.396Z,931.79
2017-05-02T02:06:21.373Z,931.77
2017-05-02T02:06:41.358Z,931.76
2017-05-02T02:07:00.775Z,931.81
2017-05-02T02:07:20.768Z,931.76
2017-05-02T02:07:40.763Z,931.76
2017-05-02T02:08:00.750Z,931.77
2017-05-02T02:08:20.704Z,931.77
2017-05-02T02:08:40.114Z,931.76
2017-05-02T02:09:00.057Z,931.77
2017-05-02T02:09:20.046Z,931.74
2017-05-02T02:09:40.041Z,931.75
2017-05-02T02:09:59.481Z,931.74
2017-05-02T02:10:19.454Z,931.74
2017-05-02T02:10:39.420Z,931.74
2017-05-02T02:10:59.401Z,931.74
2017-05-02T02:11:19.390Z,931.78
2017-05-02T02:11:39.368Z,931.75
2017-05-02T02:11:59.359Z,931.78
2017-05-02T02:12:18.774Z,931.74
2017-05-02T02:12:38.723Z,931.78
2017-05-02T02:12:58.711Z,931.79
2017-05-02T02:13:18.692Z,931.76
2017-05-02T02:13:38.687Z,931.74
2017-05-02T02:13:58.068Z,931.78
2017-05-02T02:14:17.517Z,931.76
2017-05-02T02:14:36.969Z,931.79
2017-05-02T02:14:56.957Z,931.73
2017-05-02T02:15:16.374Z,931.72
2017-05-02T02:15:35.842Z,931.75
2017-05-02T02:15:55.812Z,931.75
2017-05-02T02:16:15.806Z,931.76
2017-05-02T02:16:35.801Z,931.73
2017-05-02T02:16:55.759Z,931.75
2017-05-02T02:17:15.782Z,931.73
2017-05-02T02:17:35.215Z,931.73
2017-05-02T02:17:55.197Z,931.71
2017-05-02T02:18:15.166Z,931.72
2017-05-02T02:18:35.135Z,931.68
2017-05-02T02:18:55.127Z,931.7
2017-05-02T02:19:14.535Z,931.73
2017-05-02T02:19:34.520Z,931.71
2017-05-02T02:19:54.481Z,931.67
2017-05-02T02:20:14.477Z,931.71
2017-05-02T02:20:34.434Z,931.69
2017-05-02T02:20:54.396Z,931.67
2017-05-02T02:21:14.369Z,931.63
2017-05-02T02:21:33.789Z,931.69
2017-05-02T02:21:53.250Z,931.66
2017-05-02T02:22:13.213Z,931.69
2017-05-02T02:22:32.603Z,931.71
2017-05-02T02:22:52.027Z,931.71
2017-05-02T02:23:12.003Z,931.66
2017-05-02T02:23:31.987Z,931.65
2017-05-02T02:23:51.991Z,931.63
2017-05-02T02:24:11.974Z,931.62
2017-05-02T02:24:31.395Z,931.63
2017-05-02T02:24:51.424Z,931.65
2017-05-02T02:25:11.413Z,931.6
2017-05-02T02:25:31.389Z,931.59
2017-05-02T02:25:50.821Z,931.61
2017-05-02T02:26:10.807Z,931.58
2017-05-02T02:26:30.780Z,931.59
2017-05-02T02:26:50.761Z,931.6
2017-05-02T02:27:10.917Z,931.58
2017-05-02T02:27:30.902Z,931.57
2017-05-02T02:27:50.910Z,931.55
2017-05-02T02:28:10.902Z,931.57
2017-05-02T02:28:30.895Z,931.59
2017-05-02T02:28:50.860Z,931.56
2017-05-02T02:29:10.262Z,931.59
2017-05-02T02:29:30.235Z,931.59
2017-05-02T02:29:50.254Z,931.6
2017-05-02T02:30:10.239Z,931.59
2017-05-02T02:30:30.213Z,931.62
2017-05-02T02:30:50.209Z,931.59
2017-05-02T02:31:10.202Z,931.6
2017-05-02T02:31:29.592Z,931.65
2017-05-02T02:31:49.598Z,931.6
2017-05-02T02:32:09.585Z,931.62
2017-05-02T02:32:29.541Z,931.61
2017-05-02T02:32:49.519Z,931.62
2017-05-02T02:33:09.519Z,931.59
2017-05-02T02:33:28.949Z,931.62
2017-05-02T02:33:48.907Z,931.59
2017-05-02T02:34:08.927Z,931.62
2017-05-02T02:34:28.890Z,931.63
2017-05-02T02:34:48.867Z,931.59
2017-05-02T02:35:08.844Z,931.63
2017-05-02T02:35:28.830Z,931.63
2017-05-02T02:35:48.971Z,931.61
2017-05-02T02:36:08.368Z,931.61
2017-05-02T02:36:27.225Z,931.65
2017-05-02T02:36:47.231Z,931.6
2017-05-02T02:37:07.190Z,931.61
2017-05-02T02:37:27.186Z,931.62
2017-05-02T02:37:47.171Z,931.62
2017-05-02T02:38:06.590Z,931.6
2017-05-02T02:38:26.548Z,931.61
2017-05-02T02:38:46.536Z,931.55
2017-05-02T02:39:06.542Z,931.58
2017-05-02T02:39:26.531Z,931.59
2017-05-02T02:39:45.973Z,931.59
2017-05-02T02:40:05.948Z,931.56
2017-05-02T02:40:25.369Z,931.57
2017-05-02T02:40:45.355Z,931.56
2017-05-02T02:41:05.341Z,931.57
2017-05-02T02:41:25.311Z,931.55
2017-05-02T02:41:45.292Z,931.55
2017-05-02T02:42:04.838Z,931.58
2017-05-02T02:42:24.806Z,931.56
2017-05-02T02:42:44.785Z,931.59
2017-05-02T02:43:04.784Z,931.58
2017-05-02T02:43:24.793Z,931.57
2017-05-02T02:43:44.767Z,931.53
2017-05-02T02:44:04.167Z,931.53
2017-05-02T02:44:24.123Z,931.55
2017-05-02T02:44:44.093Z,931.56
2017-05-02T02:45:04.071Z,931.53
2017-05-02T02:45:23.522Z,931.57
2017-05-02T02:45:43.482Z,931.52
2017-05-02T02:46:03.474Z,931.54
2017-05-02T02:46:23.450Z,931.57
2017-05-02T02:46:43.459Z,931.54
2017-05-02T02:47:03.448Z,931.56
2017-05-02T02:47:22.313Z,931.54
2017-05-02T02:47:41.726Z,931.57
2017-05-02T02:48:01.702Z,931.53
2017-05-02T02:48:21.706Z,931.54
2017-05-02T02:48:41.676Z,931.54
2017-05-02T02:49:01.110Z,931.52
2017-05-02T02:49:21.123Z,931.56
2017-05-02T02:49:41.107Z,931.55
2017-05-02T02:49:59.988Z,931.52
2017-05-02T02:50:19.422Z,931.52
2017-05-02T02:50:39.427Z,931.51
2017-05-02T02:50:59.419Z,931.52
2017-05-02T02:51:18.861Z,931.51
2017-05-02T02:51:38.847Z,931.54
2017-05-02T02:51:58.810Z,931.54
2017-05-02T02:52:18.832Z,931.54
2017-05-02T02:52:38.819Z,931.51
2017-05-02T02:52:58.788Z,931.5
2017-05-02T02:53:18.265Z,931.52
2017-05-02T02:53:38.260Z,931.5
2017-05-02T02:53:58.243Z,931.5
2017-05-02T02:54:17.661Z,931.52
2017-05-02T02:54:37.636Z,931.51
2017-05-02T02:54:57.633Z,931.51
2017-05-02T02:55:17.072Z,931.51
2017-05-02T02:55:37.042Z,931.52
2017-05-02T02:55:57.027Z,931.53
2017-05-02T02:56:17.009Z,931.51
2017-05-02T02:56:36.385Z,931.55
2017-05-02T02:56:55.793Z,931.57
2017-05-02T02:57:15.899Z,931.57
2017-05-02T02:57:35.876Z,931.55
2017-05-02T02:57:55.880Z,931.53
2017-05-02T02:58:15.852Z,931.56
2017-05-02T02:58:35.802Z,931.51
2017-05-02T02:58:55.770Z,931.53
2017-05-02T02:59:15.733Z,931.51
2017-05-02T02:59:35.714Z,931.54
2017-05-02T02:59:55.697Z,931.5
2017-05-02T03:00:15.693Z,931.49
2017-05-02T03:00:35.636Z,931.48
2017-05-02T03:00:55.042Z,931.53
2017-05-02T03:01:14.446Z,931.49
2017-05-02T03:01:34.440Z,931.48
2017-05-02T03:01:53.864Z,931.46
2017-05-02T03:02:13.800Z,931.46
2017-05-02T03:02:33.777Z,931.46
2017-05-02T03:02:53.774Z,931.45
2017-05-02T03:03:13.191Z,931.52
2017-05-02T03:03:33.219Z,931.52
2017-05-02T03:03:53.217Z,931.53
2017-05-02T03:04:13.197Z,931.51
2017-05-02T03:04:32.619Z,931.52
2017-05-02T03:04:52.603Z,931.52
2017-05-02T03:05:12.589Z,931.52
2017-05-02T03:05:32.573Z,931.57
2017-05-02T03:05:52.545Z,931.55
2017-05-02T03:06:11.972Z,931.55
2017-05-02T03:06:31.951Z,931.59
2017-05-02T03:06:51.376Z,931.61
2017-05-02T03:07:11.399Z,931.59
2017-05-02T03:07:31.358Z,931.63
2017-05-02T03:07:51.310Z,931.65
2017-05-02T03:08:11.263Z,931.64
2017-05-02T03:08:31.254Z,931.63
2017-05-02T03:08:50.711Z,931.65
2017-05-02T03:09:10.666Z,931.65
2017-05-02T03:09:29.512Z,931.67
2017-05-02T03:09:49.480Z,931.66
2017-05-02T03:10:08.870Z,931.67
2017-05-02T03:10:28.886Z,931.69
2017-05-02T03:10:48.825Z,931.66
2017-05-02T03:11:08.792Z,931.68
2017-05-02T03:11:28.779Z,931.64
2017-05-02T03:11:48.222Z,931.66
2017-05-02T03:12:08.210Z,931.69
2017-05-02T03:12:27.634Z,931.68
2017-05-02T03:12:47.607Z,931.66
2017-05-02T03:13:07.616Z,931.66
2017-05-02T03:13:27.614Z,931.67
2017-05-02T03:13:47.610Z,931.64
2017-05-02T03:14:07.584Z,931.61
2017-05-02T03:14:27.561Z,931.6
2017-05-02T03:14:47.524Z,931.6
2017-05-02T03:15:07.523Z,931.62
2017-05-02T03:15:26.958Z,931.6
2017-05-02T03:15:46.945Z,931.61
2017-05-02T03:16:06.338Z,931.57
2017-05-02T03:16:25.766Z,931.54
2017-05-02T03:16:45.745Z,931.54
2017-05-02T03:17:06.000Z,931.53
2017-05-02T03:17:25.972Z,931.52
2017-05-02T03:17:45.969Z,931.52
2017-05-02T03:18:05.943Z,931.52
2017-05-02T03:18:25.355Z,931.45
2017-05-02T03:18:45.352Z,931.46
2017-05-02T03:19:05.326Z,931.46
2017-05-02T03:19:24.725Z,931.52
2017-05-02T03:19:44.683Z,931.44
2017-05-02T03:20:04.091Z,931.5
2017-05-02T03:20:23.506Z,931.54
2017-05-02T03:20:43.281Z,931.5
2017-05-02T03:21:03.274Z,931.51
2017-05-02T03:21:22.665Z,931.52
2017-05-02T03:21:42.654Z,931.56
2017-05-02T03:22:02.645Z,931.55
2017-05-02T03:22:22.085Z,931.55
2017-05-02T03:22:42.398Z,931.56
2017-05-02T03:23:06.661Z,931.6
2017-05-02T03:23:26.091Z,931.56
2017-05-02T03:23:46.092Z,931.6
2017-05-02T03:24:06.118Z,931.56
2017-05-02T03:24:26.078Z,931.57
2017-05-02T03:24:46.065Z,931.57
2017-05-02T03:25:05.499Z,931.63
2017-05-02T03:25:25.492Z,931.58
2017-05-02T03:25:45.485Z,931.6
2017-05-02T03:26:05.484Z,931.56
2017-05-02T03:26:25.476Z,931.62
2017-05-02T03:26:45.456Z,931.58
2017-05-02T03:27:05.404Z,931.58
2017-05-02T03:27:25.392Z,931.56
2017-05-02T03:27:45.391Z,931.57
2017-05-02T03:28:04.246Z,931.54
2017-05-02T03:28:23.698Z,931.59
2017-05-02T03:28:43.118Z,931.59
2017-05-02T03:29:03.104Z,931.58
2017-05-02T03:29:23.075Z,931.6
2017-05-02T03:29:43.076Z,931.62
2017-05-02T03:30:03.048Z,931.6
2017-05-02T03:30:22.488Z,931.6
2017-05-02T03:30:41.916Z,931.58
2017-05-02T03:31:01.888Z,931.58
2017-05-02T03:31:21.298Z,931.64
2017-05-02T03:31:41.288Z,931.65
2017-05-02T03:32:01.515Z,931.63
2017-05-02T03:32:20.887Z,931.64
2017-05-02T03:32:40.847Z,931.64
2017-05-02T03:33:00.301Z,931.63
2017-05-02T03:33:19.714Z,931.67
2017-05-02T03:33:39.682Z,931.67
2017-05-02T03:33:59.671Z,931.68
2017-05-02T03:34:19.141Z,931.71
2017-05-02T03:34:39.134Z,931.67
2017-05-02T03:34:58.575Z,931.74
2017-05-02T03:35:18.523Z,931.71
2017-05-02T03:35:38.523Z,931.72
2017-05-02T03:35:58.473Z,931.7
2017-05-02T03:36:18.445Z,931.68
2017-05-02T03:36:38.414Z,931.68
2017-05-02T03:36:58.860Z,931.69
2017-05-02T03:37:18.279Z,931.68
2017-05-02T03:37:38.273Z,931.69
2017-05-02T03:37:58.295Z,931.68
2017-05-02T03:38:18.316Z,931.64
2017-05-02T03:38:37.957Z,931.61
2017-05-02T03:38:57.349Z,931.62
2017-05-02T03:39:16.748Z,931.59
2017-05-02T03:39:36.772Z,931.64
2017-05-02T03:39:56.187Z,931.61
2017-05-02T03:40:15.622Z,931.61
2017-05-02T03:40:35.629Z,931.54
2017-05-02T03:40:55.631Z,931.54
2017-05-02T03:41:15.066Z,931.54
2017-05-02T03:41:35.056Z,931.56
2017-05-02T03:41:54.517Z,931.55
2017-05-02T03:42:14.516Z,931.53
2017-05-02T03:42:34.538Z,931.5
2017-05-02T03:42:53.986Z,931.49
2017-05-02T03:43:13.974Z,931.55
2017-05-02T03:43:33.394Z,931.51
2017-05-02T03:43:53.368Z,931.51
2017-05-02T03:44:13.345Z,931.49
2017-05-02T03:44:33.377Z,931.55
2017-05-02T03:44:53.333Z,931.55
2017-05-02T03:45:13.329Z,931.51
2017-05-02T03:45:33.343Z,931.51
2017-05-02T03:45:52.801Z,931.52
2017-05-02T03:46:12.757Z,931.56
2017-05-02T03:46:32.745Z,931.52
2017-05-02T03:46:52.744Z,931.52
2017-05-02T03:47:12.709Z,931.5
2017-05-02T03:47:32.133Z,931.5
2017-05-02T03:47:51.557Z,931.49
2017-05-02T03:48:11.555Z,931.48
2017-05-02T03:48:31.531Z,931.44
2017-05-02T03:48:51.523Z,931.47
2017-05-02T03:49:10.956Z,931.44
2017-05-02T03:49:30.964Z,931.49
2017-05-02T03:49:50.884Z,931.45
2017-05-02T03:50:10.829Z,931.44
2017-05-02T03:50:30.256Z,931.4
2017-05-02T03:50:50.219Z,931.44
2017-05-02T03:51:10.206Z,931.43
2017-05-02T03:51:30.193Z,931.46
2017-05-02T03:51:50.181Z,931.44
2017-05-02T03:52:09.594Z,931.42
2017-05-02T03:52:29.007Z,931.44
2017-05-02T03:52:49.029Z,931.42
2017-05-02T03:53:09.010Z,931.42
2017-05-02T03:53:28.981Z,931.4
2017-05-02T03:53:48.968Z,931.43
2017-05-02T03:54:08.955Z,931.4
2017-05-02T03:54:28.927Z,931.45
2017-05-02T03:54:48.877Z,931.45
2017-05-02T03:55:08.848Z,931.46
2017-05-02T03:55:28.824Z,931.47
2017-05-02T03:55:48.236Z,931.48
2017-05-02T03:56:07.682Z,931.49
2017-05-02T03:56:27.670Z,931.51
2017-05-02T03:56:47.065Z,931.5
2017-05-02T03:57:07.200Z,931.53
2017-05-02T03:57:27.168Z,931.51
2017-05-02T03:57:47.145Z,931.51
2017-05-02T03:58:07.132Z,931.53
2017-05-02T03:58:26.512Z,931.5
2017-05-02T03:58:45.937Z,931.49
2017-05-02T03:59:05.925Z,931.47
2017-05-02T03:59:25.336Z,931.5
2017-05-02T03:59:45.259Z,931.48
2017-05-02T04:00:05.251Z,931.43
2017-05-02T04:00:25.238Z,931.43
2017-05-02T04:00:48.127Z,931.44
2017-05-02T04:01:07.528Z,931.42
2017-05-02T04:01:27.516Z,931.43
2017-05-02T04:01:47.469Z,931.42
2017-05-02T04:02:07.448Z,931.38
2017-05-02T04:02:26.917Z,931.36
2017-05-02T04:02:46.320Z,931.39
2017-05-02T04:03:05.756Z,931.39
2017-05-02T04:03:25.732Z,931.38
2017-05-02T04:03:45.151Z,931.35
2017-05-02T04:04:04.590Z,931.37
2017-05-02T04:04:24.553Z,931.36
2017-05-02T04:04:44.557Z,931.35
2017-05-02T04:05:04.523Z,931.42
2017-05-02T04:05:23.403Z,931.38
2017-05-02T04:05:43.352Z,931.39
2017-05-02T04:06:03.321Z,931.41
2017-05-02T04:06:22.752Z,931.4
2017-05-02T04:06:42.753Z,931.37
2017-05-02T04:07:02.756Z,931.37
2017-05-02T04:07:22.190Z,931.39
2017-05-02T04:07:42.198Z,931.37
2017-05-02T04:08:02.195Z,931.38
2017-05-02T04:08:21.633Z,931.36
2017-05-02T04:08:41.631Z,931.37
2017-05-02T04:09:01.082Z,931.36
2017-05-02T04:09:21.061Z,931.36